Time;durP1;ratioP1;P1;durP2;ratioP2;P2;SDS_P1;SDS_P2;PMS_P1;PMS_P2;Temp;Humidity;BMP_temperature;BMP_pressure;BME280_temperature;BME280_humidity;BME280_pressure;Samples;Min_cycle;Max_cycle;Signal;HPM_P1;HPM_P2
2021/05/08 00:02:24;;;;;;;6.93;4.10;;;3.00;91.90;;;;;;4967455;28;20402;-65
2021/05/08 00:04:49;;;;;;;8.68;4.22;;;2.80;91.60;;;;;;4967522;28;20034;-66
2021/05/08 00:07:15;;;;;;;16.88;4.18;;;2.80;91.90;;;;;;4966836;28;20023;-66
2021/05/08 00:09:41;;;;;;;11.60;4.55;;;2.80;91.90;;;;;;4950517;28;20030;-66
2021/05/08 00:12:07;;;;;;;9.55;3.97;;;2.70;92.00;;;;;;4964191;28;20026;-66
2021/05/08 00:14:33;;;;;;;12.05;4.05;;;2.70;92.10;;;;;;4963870;28;20035;-65
2021/05/08 00:16:58;;;;;;;11.45;4.35;;;2.60;92.00;;;;;;4965154;28;20034;-66
2021/05/08 00:19:24;;;;;;;10.63;4.75;;;2.60;92.30;;;;;;4968118;28;20031;-66
2021/05/08 00:21:51;;;;;;;9.43;4.50;;;2.60;92.10;;;;;;4969340;28;20493;-66
2021/05/08 00:24:17;;;;;;;9.68;4.50;;;2.50;92.10;;;;;;4965569;28;20058;-66
2021/05/08 00:26:42;;;;;;;11.95;4.85;;;2.60;92.60;;;;;;4967867;28;20553;-66
2021/05/08 00:29:08;;;;;;;16.08;5.03;;;2.40;92.20;;;;;;4966315;28;20039;-66
2021/05/08 00:31:34;;;;;;;16.27;4.53;;;2.40;92.20;;;;;;4967048;28;20035;-65
2021/05/08 00:33:59;;;;;;;11.98;5.20;;;2.30;92.30;;;;;;4965810;28;20041;-66
2021/05/08 00:36:25;;;;;;;14.63;4.95;;;2.30;92.50;;;;;;4967601;28;20105;-66
2021/05/08 00:38:51;;;;;;;12.02;4.43;;;2.30;92.70;;;;;;4967536;28;20039;-66
2021/05/08 00:41:16;;;;;;;12.23;5.05;;;2.20;92.60;;;;;;4965723;28;20039;-66
2021/05/08 00:43:42;;;;;;;12.65;5.38;;;2.20;92.80;;;;;;4967104;28;20102;-66
2021/05/08 00:46:08;;;;;;;16.48;5.13;;;2.30;93.10;;;;;;4966051;28;20039;-66
2021/05/08 00:48:34;;;;;;;18.30;5.53;;;2.40;93.10;;;;;;4967183;28;20376;-66
2021/05/08 00:51:00;;;;;;;14.85;5.32;;;2.60;93.00;;;;;;4960009;28;20078;-66
2021/05/08 00:53:26;;;;;;;19.20;5.75;;;2.60;92.80;;;;;;4965930;28;20045;-66
2021/05/08 00:55:52;;;;;;;18.05;5.40;;;2.60;92.40;;;;;;4967382;28;20031;-66
2021/05/08 00:58:20;;;;;;;12.02;5.25;;;2.40;92.30;;;;;;4965755;28;20050;-66
2021/05/08 01:00:48;;;;;;;12.50;5.25;;;2.40;92.60;;;;;;4963939;28;20121;-66
2021/05/08 01:03:14;;;;;;;15.80;5.40;;;2.40;92.70;;;;;;4968002;28;20031;-66
2021/05/08 01:05:39;;;;;;;13.93;4.85;;;2.40;92.80;;;;;;4968387;28;20554;-66
2021/05/08 01:08:05;;;;;;;18.52;5.80;;;2.40;92.80;;;;;;4962354;28;20035;-66
2021/05/08 01:10:32;;;;;;;10.88;4.72;;;2.40;92.80;;;;;;4963895;28;20122;-65
2021/05/08 01:13:00;;;;;;;19.23;5.72;;;2.30;92.90;;;;;;4967591;28;20034;-66
2021/05/08 01:15:27;;;;;;;12.90;5.03;;;2.40;93.10;;;;;;4967753;28;20039;-66
2021/05/08 01:17:53;;;;;;;20.30;4.90;;;2.30;93.00;;;;;;4967611;28;20031;-66
2021/05/08 01:20:20;;;;;;;15.63;5.15;;;2.20;93.10;;;;;;4964771;28;20030;-66
2021/05/08 01:22:49;;;;;;;11.07;5.20;;;2.10;92.70;;;;;;4967539;28;20031;-66
2021/05/08 01:25:17;;;;;;;11.80;5.57;;;2.10;93.10;;;;;;4965105;28;20019;-66
2021/05/08 01:27:51;;;;;;;19.05;5.45;;;2.00;93.10;;;;;;4967791;28;20407;-66
2021/05/08 01:30:23;;;;;;;16.98;5.78;;;2.10;93.50;;;;;;4967381;28;20022;-65
2021/05/08 01:32:49;;;;;;;13.57;5.60;;;2.00;93.60;;;;;;4966353;28;20078;-66
2021/05/08 01:35:15;;;;;;;17.95;5.43;;;2.00;93.70;;;;;;4965950;28;20037;-66
2021/05/08 01:37:41;;;;;;;20.13;6.03;;;1.80;93.40;;;;;;4966790;28;20135;-66
2021/05/08 01:40:12;;;;;;;20.55;6.32;;;1.80;93.60;;;;;;4967814;28;20114;-66
2021/05/08 01:42:39;;;;;;;16.23;6.43;;;1.70;93.80;;;;;;4963822;28;20132;-66
2021/05/08 01:45:13;;;;;;;18.50;5.75;;;1.70;93.90;;;;;;4964395;28;20077;-66
2021/05/08 01:47:40;;;;;;;18.98;6.68;;;1.70;94.10;;;;;;4962882;28;20038;-66
2021/05/08 01:50:09;;;;;;;21.75;7.45;;;1.70;94.20;;;;;;4968229;28;20031;-66
2021/05/08 01:52:35;;;;;;;19.95;7.30;;;1.90;94.70;;;;;;4965202;28;20042;-66
2021/05/08 01:55:06;;;;;;;23.90;7.35;;;1.80;94.60;;;;;;4964682;28;20068;-66
2021/05/08 01:57:37;;;;;;;;;;;1.90;94.60;;;;;;4961773;28;20027;-66
2021/05/08 02:00:10;;;;;;;24.20;7.80;;;1.90;94.60;;;;;;4967968;28;19918;-65
2021/05/08 02:02:36;;;;;;;22.40;7.55;;;1.80;94.50;;;;;;4961309;28;20211;-66
2021/05/08 02:05:02;;;;;;;23.08;8.55;;;1.80;94.60;;;;;;4948527;28;20054;-66
2021/05/08 02:07:27;;;;;;;18.92;7.82;;;1.90;94.70;;;;;;4967881;28;20023;-66
2021/05/08 02:09:53;;;;;;;21.58;8.15;;;1.90;94.60;;;;;;4967751;28;20514;-65
2021/05/08 02:12:18;;;;;;;16.08;8.13;;;1.80;94.70;;;;;;4963650;28;20026;-66
2021/05/08 02:14:44;;;;;;;24.65;7.93;;;1.80;94.70;;;;;;4966308;28;20038;-66
2021/05/08 02:17:09;;;;;;;23.60;8.38;;;1.70;94.60;;;;;;4966485;28;20594;-66
2021/05/08 02:19:35;;;;;;;18.23;8.07;;;1.60;94.60;;;;;;4967925;28;20399;-66
2021/05/08 02:22:01;;;;;;;31.55;8.50;;;1.70;94.90;;;;;;4966102;28;20081;-66
2021/05/08 02:24:26;;;;;;;20.63;9.07;;;1.70;94.90;;;;;;4964342;28;20027;-66
2021/05/08 02:26:52;;;;;;;23.52;8.40;;;1.70;95.00;;;;;;4965930;28;20023;-65
2021/05/08 02:29:17;;;;;;;25.42;9.02;;;1.60;94.90;;;;;;4967378;28;20598;-66
2021/05/08 02:31:43;;;;;;;23.52;8.50;;;1.50;94.80;;;;;;4964831;28;20053;-66
2021/05/08 02:34:08;;;;;;;23.85;9.23;;;1.60;95.20;;;;;;4967277;28;20093;-66
2021/05/08 02:36:34;;;;;;;26.33;8.98;;;1.60;95.10;;;;;;4967489;28;20059;-66
2021/05/08 02:38:59;;;;;;;25.23;8.80;;;1.60;95.10;;;;;;4968221;28;20050;-66
2021/05/08 02:41:25;;;;;;;28.58;10.07;;;1.60;95.30;;;;;;4966603;28;20046;-66
2021/05/08 02:43:51;;;;;;;27.45;10.52;;;1.70;95.50;;;;;;4966376;28;20035;-66
2021/05/08 02:46:16;;;;;;;23.63;10.05;;;1.60;95.40;;;;;;4966461;28;20114;-65
2021/05/08 02:48:42;;;;;;;28.10;10.85;;;1.50;95.40;;;;;;4967777;28;20479;-66
2021/05/08 02:51:07;;;;;;;27.88;10.15;;;1.50;95.40;;;;;;4948358;28;20405;-66
2021/05/08 02:53:33;;;;;;;25.20;10.23;;;1.40;95.50;;;;;;4967457;28;20039;-66
2021/05/08 02:55:58;;;;;;;37.00;11.07;;;1.40;95.40;;;;;;4970918;28;20034;-66
2021/05/08 02:58:24;;;;;;;24.83;11.10;;;1.40;95.40;;;;;;4970672;28;20027;-65
2021/05/08 03:00:49;;;;;;;28.05;11.57;;;1.40;95.50;;;;;;4970361;28;20380;-65
2021/05/08 03:03:15;;;;;;;27.75;11.48;;;1.40;95.60;;;;;;4969421;28;20033;-66
2021/05/08 03:05:41;;;;;;;30.92;12.20;;;1.30;95.60;;;;;;4969228;28;20035;-65
2021/05/08 03:08:06;;;;;;;31.92;14.55;;;1.40;95.80;;;;;;4970173;28;20038;-66
2021/05/08 03:10:32;;;;;;;32.03;12.98;;;1.40;95.80;;;;;;4970703;28;20033;-66
2021/05/08 03:12:57;;;;;;;40.50;13.38;;;1.30;95.80;;;;;;4968812;28;20531;-65
2021/05/08 03:15:26;;;;;;;31.40;13.73;;;1.20;95.70;;;;;;4961836;28;20034;-66
2021/05/08 03:17:51;;;;;;;38.78;13.95;;;1.20;95.80;;;;;;4967791;28;20034;-66
2021/05/08 03:20:17;;;;;;;43.25;15.77;;;1.20;95.80;;;;;;4970829;28;20043;-66
2021/05/08 03:22:42;;;;;;;34.90;14.80;;;1.30;96.10;;;;;;4969069;28;20479;-66
2021/05/08 03:25:08;;;;;;;33.75;15.05;;;1.30;96.00;;;;;;4968104;28;20389;-65
2021/05/08 03:27:34;;;;;;;42.75;15.48;;;1.30;96.10;;;;;;4971605;28;20103;-66
2021/05/08 03:29:59;;;;;;;38.83;15.98;;;1.40;96.30;;;;;;4969720;28;20031;-66
2021/05/08 03:32:25;;;;;;;43.35;16.95;;;1.40;96.20;;;;;;4969860;28;20035;-66
2021/05/08 03:34:51;;;;;;;34.22;14.77;;;1.40;96.20;;;;;;4968713;28;20097;-66
2021/05/08 03:37:17;;;;;;;42.55;17.42;;;1.40;96.30;;;;;;4970722;28;20039;-66
2021/05/08 03:39:43;;;;;;;48.30;16.50;;;1.60;96.40;;;;;;4968782;28;20030;-66
2021/05/08 03:42:08;;;;;;;42.13;17.13;;;1.60;96.40;;;;;;4969610;28;20031;-66
2021/05/08 03:44:34;;;;;;;45.92;18.15;;;1.60;96.40;;;;;;4968120;28;20388;-66
2021/05/08 03:46:59;;;;;;;54.17;19.65;;;1.60;96.40;;;;;;4970045;28;20037;-66
2021/05/08 03:49:26;;;;;;;48.10;19.00;;;1.60;96.50;;;;;;4969145;28;20402;-66
2021/05/08 03:52:01;;;;;;;50.53;18.80;;;1.70;96.40;;;;;;4968899;28;20127;-66
2021/05/08 03:54:26;;;;;;;50.53;19.00;;;1.80;96.60;;;;;;4968557;28;20039;-66
2021/05/08 03:56:52;;;;;;;54.60;20.33;;;1.90;96.60;;;;;;4969576;28;20027;-65
2021/05/08 03:59:17;;;;;;;46.97;19.92;;;1.90;96.40;;;;;;4963898;28;20041;-66
2021/05/08 04:01:43;;;;;;;45.10;19.35;;;1.90;96.40;;;;;;4964660;28;20443;-66
2021/05/08 04:04:09;;;;;;;49.10;18.52;;;2.10;96.50;;;;;;4969806;28;20061;-66
2021/05/08 04:06:35;;;;;;;49.05;18.88;;;2.10;96.50;;;;;;4969088;28;20023;-65
2021/05/08 04:09:00;;;;;;;45.95;17.15;;;2.10;96.30;;;;;;4967405;28;20390;-66
2021/05/08 04:11:26;;;;;;;42.65;17.75;;;2.10;96.30;;;;;;4967823;28;20039;-66
2021/05/08 04:13:52;;;;;;;48.90;17.85;;;2.10;96.20;;;;;;4969450;28;20376;-66
2021/05/08 04:16:17;;;;;;;44.50;17.52;;;2.10;96.10;;;;;;4968984;28;20487;-65
2021/05/08 04:18:43;;;;;;;45.83;18.75;;;2.10;96.00;;;;;;4969399;28;20360;-66
2021/05/08 04:21:08;;;;;;;43.88;18.10;;;2.20;96.00;;;;;;4961790;28;20065;-65
2021/05/08 04:23:34;;;;;;;44.63;16.38;;;2.20;96.00;;;;;;4967625;28;20031;-65
2021/05/08 04:25:59;;;;;;;36.15;16.75;;;2.20;95.90;;;;;;4966404;28;20035;-65
2021/05/08 04:28:25;;;;;;;44.08;17.30;;;2.20;95.80;;;;;;4968084;28;20054;-66
2021/05/08 04:30:50;;;;;;;40.78;16.50;;;2.20;95.80;;;;;;4966341;28;20039;-66
2021/05/08 04:33:16;;;;;;;34.38;15.85;;;2.20;95.70;;;;;;4969091;28;20089;-65
2021/05/08 04:35:42;;;;;;;39.83;16.27;;;2.20;95.70;;;;;;4968216;28;20038;-65
2021/05/08 04:38:07;;;;;;;37.35;17.25;;;2.20;95.70;;;;;;4969189;28;20091;-65
2021/05/08 04:40:33;;;;;;;36.03;15.57;;;2.30;95.70;;;;;;4967141;28;20031;-66
2021/05/08 04:42:58;;;;;;;36.35;15.73;;;2.30;95.60;;;;;;4968194;28;20023;-65
2021/05/08 04:45:25;;;;;;;34.60;16.30;;;2.40;95.60;;;;;;4968452;28;20023;-66
2021/05/08 04:47:56;;;;;;;35.45;15.68;;;2.40;95.60;;;;;;4968314;28;20487;-66
2021/05/08 04:50:23;;;;;;;31.70;15.82;;;2.40;95.40;;;;;;4965765;28;21434;-66
2021/05/08 04:52:49;;;;;;;26.00;14.13;;;2.40;95.30;;;;;;4968043;28;20038;-66
2021/05/08 04:55:15;;;;;;;28.35;14.85;;;2.50;95.20;;;;;;4965699;28;20121;-66
2021/05/08 04:57:40;;;;;;;33.88;14.48;;;2.60;95.20;;;;;;4968246;28;20105;-66
2021/05/08 05:00:07;;;;;;;27.70;14.73;;;2.60;95.10;;;;;;4965755;28;20062;-65
2021/05/08 05:02:32;;;;;;;27.25;13.98;;;2.70;94.90;;;;;;4968591;28;20031;-66
2021/05/08 05:04:58;;;;;;;27.83;12.95;;;2.70;94.70;;;;;;4967904;28;20034;-66
2021/05/08 05:07:23;;;;;;;26.27;13.25;;;2.80;94.50;;;;;;4967653;28;20015;-66
2021/05/08 05:09:49;;;;;;;22.38;12.25;;;2.80;94.30;;;;;;4967339;28;20023;-65
2021/05/08 05:12:16;;;;;;;29.05;13.55;;;2.90;94.30;;;;;;4965635;28;20502;-66
2021/05/08 05:14:41;;;;;;;21.58;11.93;;;2.90;94.20;;;;;;4964665;28;20027;-65
2021/05/08 05:17:07;;;;;;;20.27;10.93;;;3.00;94.20;;;;;;4964590;28;20121;-66
2021/05/08 05:19:32;;;;;;;23.77;11.30;;;3.00;94.00;;;;;;4967645;28;20335;-66
2021/05/08 05:21:58;;;;;;;17.85;11.43;;;3.10;93.80;;;;;;4967785;28;20038;-65
2021/05/08 05:24:23;;;;;;;20.48;10.77;;;3.20;93.70;;;;;;4967141;28;20061;-66
2021/05/08 05:26:49;;;;;;;17.75;10.52;;;3.30;93.50;;;;;;4967144;28;20038;-66
2021/05/08 05:29:15;;;;;;;23.65;11.98;;;3.40;93.20;;;;;;4961422;28;20030;-66
2021/05/08 05:31:40;;;;;;;18.85;10.98;;;3.50;93.20;;;;;;4964946;28;20113;-66
2021/05/08 05:34:06;;;;;;;16.63;10.13;;;3.50;93.00;;;;;;4966827;28;20038;-67
2021/05/08 05:36:32;;;;;;;18.10;10.13;;;3.60;92.80;;;;;;4967389;28;20188;-66
2021/05/08 05:39:01;;;;;;;19.27;8.70;;;3.70;92.30;;;;;;4950278;28;20489;-67
2021/05/08 05:41:27;;;;;;;15.00;9.82;;;3.80;92.10;;;;;;4967131;28;20058;-67
2021/05/08 05:43:53;;;;;;;15.82;8.82;;;3.90;92.30;;;;;;4968077;28;20526;-66
2021/05/08 05:46:18;;;;;;;15.75;9.32;;;4.00;92.00;;;;;;4959442;28;20112;-66
2021/05/08 05:48:44;;;;;;;12.75;8.75;;;4.20;91.80;;;;;;4963028;28;20372;-67
2021/05/08 05:51:10;;;;;;;15.70;7.95;;;4.40;91.40;;;;;;4967339;28;20061;-66
2021/05/08 05:53:35;;;;;;;15.23;8.02;;;4.50;91.10;;;;;;4965515;28;20038;-66
2021/05/08 05:56:01;;;;;;;13.18;7.60;;;4.60;90.50;;;;;;4966679;28;20093;-66
2021/05/08 05:58:27;;;;;;;13.55;7.55;;;4.70;90.40;;;;;;4967310;28;20062;-66
2021/05/08 06:00:53;;;;;;;11.85;7.55;;;4.80;89.80;;;;;;4965630;28;20065;-66
2021/05/08 06:03:19;;;;;;;14.98;8.02;;;4.90;89.70;;;;;;4967309;28;20035;-66
2021/05/08 06:05:44;;;;;;;12.05;7.40;;;5.10;89.60;;;;;;4966024;28;20034;-66
2021/05/08 06:08:11;;;;;;;10.93;6.93;;;5.20;89.30;;;;;;4967292;28;20391;-66
2021/05/08 06:10:37;;;;;;;11.57;6.82;;;5.30;89.00;;;;;;4960698;28;20035;-66
2021/05/08 06:13:03;;;;;;;12.63;6.35;;;5.50;88.60;;;;;;4965312;28;20027;-67
2021/05/08 06:15:29;;;;;;;13.45;6.55;;;5.60;88.20;;;;;;4947807;28;20035;-66
2021/05/08 06:17:56;;;;;;;11.35;5.47;;;5.80;88.60;;;;;;4965632;28;20042;-66
2021/05/08 06:20:22;;;;;;;12.50;6.50;;;5.90;86.80;;;;;;4962022;28;20041;-67
2021/05/08 06:22:48;;;;;;;9.90;5.93;;;6.10;88.00;;;;;;4966624;28;20121;-67
2021/05/08 06:25:13;;;;;;;11.90;5.25;;;6.20;87.10;;;;;;4966047;28;20372;-67
2021/05/08 06:27:41;;;;;;;12.75;6.05;;;6.40;87.40;;;;;;4968603;28;20023;-67
2021/05/08 06:30:08;;;;;;;11.13;5.50;;;6.40;86.10;;;;;;4969143;28;20077;-67
2021/05/08 06:32:34;;;;;;;10.30;4.88;;;6.70;86.30;;;;;;4969131;28;20031;-67
2021/05/08 06:35:00;;;;;;;10.00;4.97;;;6.90;85.70;;;;;;4970384;28;20088;-66
2021/05/08 06:37:25;;;;;;;10.10;4.85;;;7.10;84.50;;;;;;4972128;28;20396;-66
2021/05/08 06:39:51;;;;;;;13.10;5.10;;;7.00;84.30;;;;;;4969511;28;20501;-66
2021/05/08 06:42:17;;;;;;;11.07;4.60;;;7.40;84.90;;;;;;4968833;28;20030;-67
2021/05/08 06:44:42;;;;;;;11.05;4.43;;;7.40;83.00;;;;;;4960147;28;20424;-66
2021/05/08 06:47:14;;;;;;;9.23;3.90;;;7.70;83.50;;;;;;4965311;28;20031;-67
2021/05/08 06:49:43;;;;;;;12.73;4.65;;;7.80;82.20;;;;;;4969703;28;20050;-67
2021/05/08 06:52:09;;;;;;;9.80;4.00;;;8.00;83.80;;;;;;4967183;28;20037;-67
2021/05/08 06:54:35;;;;;;;9.60;4.32;;;8.30;81.30;;;;;;4969434;28;20037;-67
2021/05/08 06:57:00;;;;;;;12.25;4.38;;;8.60;81.70;;;;;;4970068;28;20446;-67
2021/05/08 06:59:26;;;;;;;11.00;4.60;;;8.10;80.40;;;;;;4970639;28;20019;-66
2021/05/08 07:01:52;;;;;;;9.85;3.92;;;8.40;80.70;;;;;;4968507;28;20034;-68
2021/05/08 07:04:18;;;;;;;8.73;4.03;;;8.80;80.20;;;;;;4966996;28;20057;-67
2021/05/08 07:06:43;;;;;;;8.45;3.85;;;8.80;79.50;;;;;;4969255;28;20023;-67
2021/05/08 07:09:09;;;;;;;10.18;3.67;;;8.90;78.60;;;;;;4969396;28;20091;-67
2021/05/08 07:11:35;;;;;;;7.97;4.20;;;9.60;78.10;;;;;;4968768;28;20031;-67
2021/05/08 07:14:01;;;;;;;10.80;3.50;;;9.60;77.30;;;;;;4968724;28;20035;-67
2021/05/08 07:16:26;;;;;;;9.07;3.10;;;9.10;76.60;;;;;;4970619;28;20066;-67
2021/05/08 07:18:52;;;;;;;10.43;2.90;;;9.40;76.50;;;;;;4958895;28;20605;-67
2021/05/08 07:21:17;;;;;;;9.75;3.03;;;8.90;75.00;;;;;;4959187;28;20070;-67
2021/05/08 07:23:43;;;;;;;9.32;3.03;;;8.50;76.10;;;;;;4960138;28;20019;-67
2021/05/08 07:26:09;;;;;;;7.75;3.22;;;8.80;76.40;;;;;;4967232;28;20041;-67
2021/05/08 07:28:34;;;;;;;5.20;2.67;;;9.10;75.90;;;;;;4967219;28;20471;-67
2021/05/08 07:31:00;;;;;;;10.27;3.05;;;8.90;75.10;;;;;;4966528;28;20038;-67
2021/05/08 07:33:26;;;;;;;11.23;3.50;;;8.60;77.20;;;;;;4965214;28;20071;-67
2021/05/08 07:35:51;;;;;;;6.55;3.20;;;8.60;78.60;;;;;;4967913;28;20493;-67
2021/05/08 07:38:18;;;;;;;9.43;3.53;;;8.80;77.00;;;;;;4968688;28;20031;-67
2021/05/08 07:40:48;;;;;;;9.38;3.83;;;8.90;75.90;;;;;;4968941;28;20066;-67
2021/05/08 07:43:14;;;;;;;9.07;2.75;;;8.50;77.00;;;;;;4961552;28;20415;-67
2021/05/08 07:45:39;;;;;;;8.93;3.55;;;8.70;76.60;;;;;;4964840;28;20031;-68
2021/05/08 07:48:05;;;;;;;13.90;3.92;;;8.70;76.70;;;;;;4966618;28;20534;-67
2021/05/08 07:50:31;;;;;;;7.25;3.20;;;9.00;75.40;;;;;;4967860;28;20419;-67
2021/05/08 07:52:57;;;;;;;12.75;3.38;;;9.40;74.70;;;;;;4967464;28;20058;-68
2021/05/08 07:55:26;;;;;;;6.57;3.03;;;9.60;73.90;;;;;;4964693;28;20085;-67
2021/05/08 07:57:51;;;;;;;6.70;2.63;;;9.30;74.00;;;;;;4966680;28;20375;-68
2021/05/08 08:00:19;;;;;;;7.20;2.67;;;9.70;71.20;;;;;;4973069;28;20035;-68
2021/05/08 08:02:45;;;;;;;8.15;2.55;;;10.00;70.50;;;;;;4966547;28;20130;-68
2021/05/08 08:05:11;;;;;;;5.45;2.25;;;10.50;70.20;;;;;;4965676;28;20162;-68
2021/05/08 08:07:37;;;;;;;7.25;2.47;;;10.70;67.30;;;;;;4962795;28;20023;-68
2021/05/08 08:10:05;;;;;;;6.97;2.50;;;10.60;66.50;;;;;;4968372;28;20110;-68
2021/05/08 08:12:30;;;;;;;4.85;2.40;;;11.30;67.80;;;;;;4967970;28;20019;-68
2021/05/08 08:14:56;;;;;;;7.72;2.50;;;11.30;65.90;;;;;;4966163;28;20041;-68
2021/05/08 08:17:22;;;;;;;8.35;2.30;;;10.80;65.40;;;;;;4968850;28;20106;-68
2021/05/08 08:19:48;;;;;;;8.23;2.35;;;10.50;66.50;;;;;;4968786;28;20079;-68
2021/05/08 08:22:15;;;;;;;9.00;2.75;;;10.50;65.90;;;;;;4969268;28;20133;-68
2021/05/08 08:24:42;;;;;;;5.80;2.38;;;10.60;66.70;;;;;;4965837;28;20034;-68
2021/05/08 08:27:08;;;;;;;6.90;2.47;;;11.20;66.80;;;;;;4966410;28;20047;-68
2021/05/08 08:29:33;;;;;;;6.57;2.03;;;11.60;65.50;;;;;;4968466;28;20446;-68
2021/05/08 08:31:59;;;;;;;5.70;1.92;;;11.60;61.50;;;;;;4969309;28;20043;-68
2021/05/08 08:34:25;;;;;;;6.85;2.45;;;11.40;62.70;;;;;;4965825;28;20398;-69
2021/05/08 08:36:50;;;;;;;11.05;2.25;;;11.70;63.80;;;;;;4968898;28;20033;-68
2021/05/08 08:39:16;;;;;;;6.22;2.17;;;12.00;60.60;;;;;;4965999;28;20065;-68
2021/05/08 08:41:42;;;;;;;5.47;1.90;;;11.20;61.80;;;;;;4972411;28;20030;-68
2021/05/08 08:44:10;;;;;;;7.63;1.92;;;11.30;61.30;;;;;;4970483;28;20344;-68
2021/05/08 08:46:44;;;;;;;6.53;2.00;;;11.30;61.10;;;;;;4965145;28;20030;-68
2021/05/08 08:49:10;;;;;;;6.07;2.10;;;11.60;61.20;;;;;;4968770;28;20424;-68
2021/05/08 08:51:37;;;;;;;4.93;2.35;;;11.70;60.70;;;;;;4967519;28;20372;-68
2021/05/08 08:54:03;;;;;;;6.45;1.75;;;11.90;61.70;;;;;;4968549;28;20085;-68
2021/05/08 08:56:39;;;;;;;4.88;1.80;;;11.80;58.70;;;;;;4967704;28;20041;-68
2021/05/08 08:59:28;;;;;;;4.80;1.55;;;11.90;58.90;;;;;;4968799;28;20035;-69
2021/05/08 09:01:55;;;;;;;5.68;1.70;;;12.20;56.10;;;;;;4967880;28;20182;-69
2021/05/08 09:04:21;;;;;;;5.40;1.90;;;12.30;55.10;;;;;;4966980;28;20031;-68
2021/05/08 09:06:48;;;;;;;6.47;1.77;;;12.60;58.60;;;;;;4966086;28;20534;-68
2021/05/08 09:09:15;;;;;;;4.82;1.85;;;12.50;55.30;;;;;;4966429;28;20395;-68
2021/05/08 09:11:55;;;;;;;4.35;1.50;;;12.30;55.40;;;;;;4968240;28;20033;-68
2021/05/08 09:14:28;;;;;;;3.97;1.50;;;12.20;56.30;;;;;;4964627;28;20034;-68
2021/05/08 09:17:29;;;;;;;2.85;1.33;;;12.40;54.90;;;;;;4964254;28;20037;-68
2021/05/08 09:20:00;;;;;;;5.60;1.43;;;12.60;57.80;;;;;;4956370;28;20046;-68
2021/05/08 09:22:30;;;;;;;3.25;1.40;;;13.00;52.90;;;;;;4967017;28;20117;-68
2021/05/08 09:24:56;;;;;;;3.45;1.70;;;12.80;54.80;;;;;;4964973;28;20061;-68
2021/05/08 09:27:44;;;;;;;5.38;1.98;;;12.60;55.60;;;;;;4959549;28;20050;-68
2021/05/08 09:30:15;;;;;;;4.15;1.83;;;12.50;54.30;;;;;;4967261;28;20163;-68
2021/05/08 09:32:42;;;;;;;;;;;12.50;55.90;;;;;;4967714;28;20074;-68
2021/05/08 09:35:35;;;;;;;3.95;1.95;;;12.60;52.70;;;;;;4955075;28;19926;-68
2021/05/08 09:38:18;;;;;;;5.40;1.83;;;12.50;51.80;;;;;;4963352;28;20142;-68
2021/05/08 09:40:52;;;;;;;7.57;2.20;;;13.30;53.00;;;;;;4962938;28;20027;-67
2021/05/08 09:43:21;;;;;;;9.70;1.73;;;13.80;52.80;;;;;;4966217;28;20244;-68
2021/05/08 09:45:48;;;;;;;4.28;2.08;;;14.50;53.90;;;;;;4963055;28;20030;-68
2021/05/08 09:48:33;;;;;;;6.38;1.92;;;13.70;50.20;;;;;;4964040;28;20026;-68
2021/05/08 09:51:25;;;;;;;7.20;2.08;;;13.50;51.90;;;;;;4966870;28;20454;-68
2021/05/08 09:54:10;;;;;;;29.42;3.92;;;13.40;49.60;;;;;;4959983;28;20034;-68
2021/05/08 09:56:46;;;;;;;5.00;2.15;;;13.40;51.00;;;;;;4958193;28;20104;-68
2021/05/08 09:59:36;;;;;;;5.10;1.98;;;13.20;48.50;;;;;;4963479;28;20553;-68
2021/05/08 10:02:01;;;;;;;5.28;1.90;;;13.30;48.60;;;;;;4964367;28;20130;-68
2021/05/08 10:04:35;;;;;;;6.35;1.85;;;14.10;51.10;;;;;;4965903;28;20110;-68
2021/05/08 10:07:08;;;;;;;5.70;1.60;;;14.10;51.40;;;;;;4965377;28;20106;-68
2021/05/08 10:09:35;;;;;;;6.90;2.08;;;14.30;50.50;;;;;;4967479;28;20025;-68
2021/05/08 10:12:06;;;;;;;6.00;2.38;;;14.00;48.90;;;;;;4965915;28;20242;-68
2021/05/08 10:14:37;;;;;;;6.15;2.30;;;14.30;47.90;;;;;;4966399;28;20066;-68
2021/05/08 10:17:03;;;;;;;5.75;2.15;;;14.60;46.30;;;;;;4967051;28;20035;-68
2021/05/08 10:19:33;;;;;;;5.72;2.20;;;14.60;47.30;;;;;;4965633;28;20050;-68
2021/05/08 10:22:02;;;;;;;5.60;2.15;;;15.00;44.90;;;;;;4963476;28;20034;-68
2021/05/08 10:24:29;;;;;;;7.75;2.03;;;15.10;45.60;;;;;;4965541;28;20026;-70
2021/05/08 10:26:59;;;;;;;3.95;1.83;;;14.90;44.20;;;;;;4965825;28;20491;-69
2021/05/08 10:29:31;;;;;;;4.40;2.13;;;15.00;46.70;;;;;;4963835;28;20403;-68
2021/05/08 10:32:01;;;;;;;4.97;2.08;;;14.90;46.80;;;;;;4965576;28;20301;-68
2021/05/08 10:34:34;;;;;;;7.10;2.22;;;14.90;45.40;;;;;;4964014;28;20049;-68
2021/05/08 10:37:08;;;;;;;4.20;2.15;;;14.90;42.60;;;;;;4964775;28;20030;-68
2021/05/08 10:39:54;;;;;;;9.10;2.20;;;15.00;43.70;;;;;;4965729;28;20057;-68
2021/05/08 10:42:49;;;;;;;6.32;2.28;;;14.60;42.80;;;;;;4963469;28;20561;-68
2021/05/08 10:45:21;;;;;;;3.95;2.03;;;15.00;39.20;;;;;;4957280;28;20047;-68
2021/05/08 10:50:27;;;;;;;6.13;2.60;;;15.60;41.70;;;;;;4968248;28;20506;-69
2021/05/08 10:53:08;;;;;;;4.72;2.42;;;15.20;38.40;;;;;;4966395;28;20035;-68
2021/05/08 10:55:45;;;;;;;4.97;1.77;;;15.20;40.20;;;;;;4963632;28;20371;-68
2021/05/08 11:00:46;;;;;;;4.93;2.00;;;15.50;39.80;;;;;;4962430;28;20398;-68
2021/05/08 11:03:13;;;;;;;5.88;2.05;;;15.20;38.90;;;;;;4962109;28;20085;-68
2021/05/08 11:06:03;;;;;;;4.63;1.80;;;14.90;41.00;;;;;;4963582;28;20042;-68
2021/05/08 11:08:28;;;;;;;3.78;2.15;;;15.50;40.30;;;;;;4964178;28;20414;-69
2021/05/08 11:11:03;;;;;;;4.63;1.83;;;15.50;40.00;;;;;;4947240;28;20153;-68
2021/05/08 11:13:46;;;;;;;6.55;2.00;;;14.90;38.40;;;;;;4963472;28;20038;-68
2021/05/08 11:16:19;;;;;;;5.35;2.38;;;15.50;36.00;;;;;;4967103;28;20046;-68
2021/05/08 11:18:46;;;;;;;4.90;2.25;;;16.20;36.30;;;;;;4969924;28;20055;-68
2021/05/08 11:21:12;;;;;;;4.15;2.00;;;15.40;37.00;;;;;;4969507;28;20035;-69
2021/05/08 11:23:41;;;;;;;5.55;2.13;;;15.80;36.30;;;;;;4969677;28;20080;-69
2021/05/08 11:26:31;;;;;;;4.43;2.15;;;15.80;37.70;;;;;;4967089;28;20027;-68
2021/05/08 11:29:01;;;;;;;3.45;1.95;;;16.40;35.10;;;;;;4969129;28;20031;-69
2021/05/08 11:31:31;;;;;;;5.03;2.28;;;16.40;35.60;;;;;;4968676;28;20031;-69
2021/05/08 11:34:10;;;;;;;5.70;1.77;;;16.40;35.90;;;;;;4969753;28;20105;-69
2021/05/08 11:36:54;;;;;;;3.03;1.67;;;16.60;35.60;;;;;;4967679;28;20153;-69
2021/05/08 11:39:24;;;;;;;4.50;2.15;;;16.10;36.80;;;;;;4967035;28;20027;-68
2021/05/08 11:41:52;;;;;;;4.55;2.20;;;15.70;37.70;;;;;;4964038;28;20042;-68
2021/05/08 11:44:20;;;;;;;5.72;2.00;;;15.60;35.30;;;;;;4966248;28;20019;-68
2021/05/08 11:46:56;;;;;;;3.58;1.80;;;15.80;38.00;;;;;;4965668;28;20109;-68
2021/05/08 11:49:30;;;;;;;5.90;2.20;;;15.40;37.70;;;;;;4969452;28;20221;-68
2021/05/08 11:51:57;;;;;;;5.57;2.42;;;15.10;36.70;;;;;;4968295;28;20030;-68
2021/05/08 11:54:23;;;;;;;4.57;2.13;;;15.10;36.30;;;;;;4969814;28;20569;-69
2021/05/08 11:56:49;;;;;;;6.75;2.35;;;15.20;37.00;;;;;;4968401;28;20031;-68
2021/05/08 11:59:15;;;;;;;6.13;2.22;;;15.10;35.30;;;;;;4967631;28;20029;-68
2021/05/08 12:01:40;;;;;;;5.07;2.30;;;15.00;36.60;;;;;;4956796;28;20039;-69
2021/05/08 12:04:06;;;;;;;4.85;2.17;;;14.80;35.20;;;;;;4960182;28;20315;-68
2021/05/08 12:06:33;;;;;;;5.70;2.30;;;14.90;34.90;;;;;;4962854;28;20027;-68
2021/05/08 12:09:09;;;;;;;4.72;2.47;;;15.30;36.80;;;;;;4967380;28;20031;-69
2021/05/08 12:11:34;;;;;;;5.90;2.50;;;15.30;35.90;;;;;;4967233;28;20398;-68
2021/05/08 12:14:14;;;;;;;4.93;2.58;;;15.00;37.20;;;;;;4966586;28;20039;-68
2021/05/08 12:16:41;;;;;;;4.93;2.35;;;15.20;37.20;;;;;;4963631;28;20039;-69
2021/05/08 12:19:07;;;;;;;6.57;2.55;;;15.80;34.80;;;;;;4966806;28;20132;-68
2021/05/08 12:21:32;;;;;;;5.90;2.58;;;16.00;34.50;;;;;;4967142;28;20031;-69
2021/05/08 12:23:58;;;;;;;4.43;2.17;;;16.50;34.40;;;;;;4965329;28;20037;-68
2021/05/08 12:26:24;;;;;;;6.72;2.20;;;17.10;35.40;;;;;;4965471;28;20443;-69
2021/05/08 12:28:50;;;;;;;5.18;2.80;;;16.30;36.30;;;;;;4965585;28;20089;-68
2021/05/08 12:31:26;;;;;;;5.65;2.65;;;15.30;36.70;;;;;;4965681;28;20038;-68
2021/05/08 12:33:53;;;;;;;6.15;2.80;;;15.00;36.30;;;;;;4967484;28;20041;-68
2021/05/08 12:36:22;;;;;;;5.13;2.50;;;14.80;37.60;;;;;;4965243;28;20027;-68
2021/05/08 12:38:48;;;;;;;5.82;2.50;;;15.60;38.20;;;;;;4966928;28;20408;-68
2021/05/08 12:41:35;;;;;;;6.22;2.55;;;15.60;38.10;;;;;;4967167;28;20038;-68
2021/05/08 12:44:11;;;;;;;6.63;2.88;;;15.40;38.30;;;;;;4964310;28;20031;-68
2021/05/08 12:47:00;;;;;;;3.15;2.25;;;15.80;38.10;;;;;;4963113;28;20030;-69
2021/05/08 12:49:28;;;;;;;5.88;2.95;;;16.00;37.00;;;;;;4967396;28;20292;-69
2021/05/08 12:51:54;;;;;;;4.40;2.38;;;15.30;35.80;;;;;;4966148;28;20230;-69
2021/05/08 12:54:30;;;;;;;4.82;2.60;;;15.50;38.50;;;;;;4966502;28;20471;-68
2021/05/08 12:57:09;;;;;;;5.60;2.70;;;15.20;36.60;;;;;;4967648;28;20431;-68